Time;durP1;ratioP1;P1;durP2;ratioP2;P2;SDS_P1;SDS_P2;PMS_P1;PMS_P2;Temp;Humidity;BMP_temperature;BMP_pressure;BME280_temperature;BME280_humidity;BME280_pressure;Samples;Min_cycle;Max_cycle;Signal;HPM_P1;HPM_P2
2023/04/04 00:04:03;;;;;;;;;;;16.90;54.80;;;;;;10132484;28;94468;-71
2023/04/04 00:09:05;;;;;;;;;;;16.90;54.90;;;;;;10131308;28;97022;-71
2023/04/04 00:14:07;;;;;;;;;;;16.90;54.80;;;;;;10132241;28;93483;-71
2023/04/04 00:19:13;;;;;;;;;;;16.90;54.70;;;;;;10115121;28;93804;-70
2023/04/04 00:24:14;;;;;;;;;;;16.90;54.80;;;;;;10133544;28;93887;-71
2023/04/04 00:29:16;;;;;;;;;;;16.80;54.60;;;;;;10132169;28;94248;-71
2023/04/04 00:34:18;;;;;;;;;;;16.80;54.60;;;;;;10132287;28;94301;-70
2023/04/04 00:39:22;;;;;;;;;;;16.80;54.60;;;;;;10131295;28;94739;-71
2023/04/04 00:44:24;;;;;;;;;;;16.80;54.60;;;;;;10132077;28;92763;-70
2023/04/04 00:49:26;;;;;;;;;;;16.80;54.50;;;;;;10131449;28;96223;-70
2023/04/04 00:54:28;;;;;;;;;;;16.80;54.50;;;;;;10131676;28;93573;-71
2023/04/04 00:59:30;;;;;;;;;;;16.80;54.40;;;;;;10129893;28;96200;-71
2023/04/04 01:04:33;;;;;;;;;;;16.80;54.50;;;;;;10131919;28;93461;-71
2023/04/04 01:09:35;;;;;;;;;;;16.70;54.40;;;;;;10131138;28;93568;-71
2023/04/04 01:14:36;;;;;;;;;;;16.70;54.40;;;;;;10130611;28;94136;-72
2023/04/04 01:20:01;;;;;;;;;;;16.70;54.40;;;;;;10131226;28;93415;-71
2023/04/04 01:25:04;;;;;;;;;;;16.70;54.30;;;;;;10106336;28;92672;-71
2023/04/04 01:30:07;;;;;;;;;;;16.70;54.30;;;;;;10130759;28;94391;-71
2023/04/04 01:35:19;;;;;;;;;;;16.70;54.20;;;;;;10131672;28;92895;-70
2023/04/04 01:40:24;;;;;;;;;;;16.70;54.20;;;;;;10130375;28;93659;-71
2023/04/04 01:45:28;;;;;;;;;;;16.60;54.10;;;;;;10131595;28;94908;-71
2023/04/04 01:50:30;;;;;;;;;;;16.60;54.10;;;;;;10108412;28;96849;-71
2023/04/04 01:55:32;;;;;;;;;;;16.60;54.20;;;;;;10126698;28;92934;-70
2023/04/04 02:00:33;;;;;;;;;;;16.60;54.10;;;;;;10126671;28;93412;-71
2023/04/04 02:05:35;;;;;;;;;;;16.60;54.00;;;;;;10127076;28;93445;-71
2023/04/04 02:10:37;;;;;;;;;;;16.60;54.00;;;;;;10127073;28;93507;-71
2023/04/04 02:15:39;;;;;;;;;;;16.60;54.00;;;;;;10126037;28;94676;-72
2023/04/04 02:20:41;;;;;;;;;;;16.50;54.00;;;;;;10126666;28;94547;-71
2023/04/04 02:25:43;;;;;;;;;;;16.50;53.90;;;;;;10126741;28;93505;-71
2023/04/04 02:30:44;;;;;;;;;;;16.50;53.90;;;;;;10109453;28;94498;-71
2023/04/04 02:35:46;;;;;;;;;;;16.50;53.90;;;;;;10108979;28;94064;-71
2023/04/04 02:40:48;;;;;;;;;;;16.50;53.90;;;;;;10105129;28;96568;-71
2023/04/04 02:45:50;;;;;;;;;;;16.50;53.90;;;;;;10124763;28;93844;-70
2023/04/04 02:50:51;;;;;;;;;;;16.50;53.80;;;;;;10062021;28;1872114;-70
2023/04/04 02:55:53;;;;;;;;;;;16.50;53.80;;;;;;10127082;28;93789;-71
2023/04/04 03:00:55;;;;;;;;;;;16.50;53.80;;;;;;10127892;28;93635;-70
2023/04/04 03:05:57;;;;;;;;;;;16.50;53.70;;;;;;10108768;28;93486;-71
2023/04/04 03:10:59;;;;;;;;;;;16.50;53.80;;;;;;10128428;28;93359;-71
2023/04/04 03:16:03;;;;;;;;;;;16.40;53.70;;;;;;10127595;28;93152;-71
2023/04/04 03:21:05;;;;;;;;;;;16.40;53.70;;;;;;10127441;28;93434;-71
2023/04/04 03:26:06;;;;;;;;;;;16.40;53.60;;;;;;10126421;28;93301;-70
2023/04/04 03:31:08;;;;;;;;;;;16.40;53.60;;;;;;10124409;28;95969;-70
2023/04/04 03:36:11;;;;;;;;;;;16.40;53.60;;;;;;10126327;28;93503;-71
2023/04/04 03:41:13;;;;;;;;;;;16.40;53.60;;;;;;10127155;28;94558;-71
2023/04/04 05:04:07;;;;;;;;;;;16.70;52.50;;;;;;10115802;28;93540;-68
2023/04/04 05:09:11;;;;;;;;;;;16.90;52.10;;;;;;10131585;28;93559;-71
2023/04/04 05:14:13;;;;;;;;;;;16.90;53.00;;;;;;10133705;28;92793;-73
2023/04/04 05:19:15;;;;;;;;;;;16.90;53.40;;;;;;10133035;28;95276;-71
2023/04/04 05:24:17;;;;;;;;;;;16.90;53.40;;;;;;10131246;28;93949;-71
2023/04/04 05:29:19;;;;;;;;;;;16.90;53.60;;;;;;10126402;28;95836;-69
2023/04/04 05:34:21;;;;;;;;;;;16.90;54.10;;;;;;10130910;28;93348;-69
2023/04/04 05:39:23;;;;;;;;;;;16.80;53.80;;;;;;10130412;28;94013;-67
2023/04/04 05:44:25;;;;;;;;;;;16.80;56.50;;;;;;10130388;28;93454;-67
2023/04/04 05:49:27;;;;;;;;;;;16.80;56.90;;;;;;10126923;28;92983;-68
2023/04/04 05:54:29;;;;;;;;;;;16.80;56.40;;;;;;10130023;28;93491;-65
2023/04/04 05:59:30;;;;;;;;;;;16.70;56.70;;;;;;10129662;28;93409;-64
2023/04/04 06:04:32;;;;;;;;;;;16.70;56.20;;;;;;10129673;28;93687;-68
2023/04/04 06:09:35;;;;;;;;;;;16.70;56.10;;;;;;10128928;28;93269;-67
2023/04/04 06:14:36;;;;;;;;;;;16.70;57.00;;;;;;10129600;28;93685;-68
2023/04/04 06:19:38;;;;;;;;;;;16.70;57.10;;;;;;10126541;28;95209;-68
2023/04/04 06:24:40;;;;;;;;;;;16.70;57.10;;;;;;10128670;28;94725;-68
2023/04/04 06:29:42;;;;;;;;;;;16.70;57.40;;;;;;10129367;28;93813;-66
2023/04/04 06:34:47;;;;;;;;;;;16.70;57.90;;;;;;10127951;28;93337;-67
2023/04/04 06:39:49;;;;;;;;;;;16.70;60.60;;;;;;10128545;28;93590;-67
2023/04/04 06:44:51;;;;;;;;;;;16.70;59.20;;;;;;10127551;28;94272;-67
2023/04/04 06:49:53;;;;;;;;;;;16.60;58.60;;;;;;10128388;28;94342;-69
2023/04/04 06:54:55;;;;;;;;;;;16.50;57.90;;;;;;10095858;28;92693;-67
2023/04/04 06:59:56;;;;;;;;;;;16.50;57.60;;;;;;10135404;28;93238;-67
2023/04/04 07:04:58;;;;;;;;;;;16.40;57.60;;;;;;10137889;28;93369;-67
2023/04/04 07:10:00;;;;;;;;;;;16.40;56.90;;;;;;10125445;28;95973;-65
2023/04/04 07:15:02;;;;;;;;;;;16.30;56.40;;;;;;10109558;28;93697;-67
2023/04/04 07:20:05;;;;;;;;;;;16.30;56.30;;;;;;10126703;28;93870;-67
2023/04/04 07:25:07;;;;;;;;;;;16.30;56.00;;;;;;10127796;28;95198;-67
2023/04/04 07:30:09;;;;;;;;;;;16.30;55.80;;;;;;10123723;28;92965;-68
2023/04/04 07:35:11;;;;;;;;;;;16.30;55.70;;;;;;10107480;28;94586;-68
2023/04/04 07:40:13;;;;;;;;;;;16.30;55.70;;;;;;10123070;28;93525;-67
2023/04/04 07:45:15;;;;;;;;;;;16.30;55.60;;;;;;10128128;28;93178;-67
2023/04/04 07:50:18;;;;;;;;;;;16.30;55.40;;;;;;10128834;28;93591;-67
2023/04/04 07:55:19;;;;;;;;;;;16.30;55.60;;;;;;10135080;28;94459;-67
2023/04/04 08:00:24;;;;;;;;;;;16.30;55.50;;;;;;10131588;28;95882;-67
2023/04/04 08:05:26;;;;;;;;;;;16.30;55.60;;;;;;10134513;28;93956;-67
2023/04/04 08:10:28;;;;;;;;;;;16.30;55.60;;;;;;10133363;28;94245;-68
2023/04/04 08:15:29;;;;;;;;;;;16.30;55.70;;;;;;10116105;28;93652;-67
2023/04/04 08:20:31;;;;;;;;;;;16.30;55.70;;;;;;10132475;28;94366;-67
2023/04/04 08:25:33;;;;;;;;;;;16.30;55.60;;;;;;10133272;28;94506;-67
2023/04/04 08:30:36;;;;;;;;;;;16.30;55.50;;;;;;10115602;28;92618;-67
2023/04/04 08:35:38;;;;;;;;;;;16.30;55.50;;;;;;10133416;28;92830;-68
2023/04/04 08:40:40;;;;;;;;;;;16.30;55.50;;;;;;10131586;28;93781;-67
2023/04/04 08:45:43;;;;;;;;;;;16.30;55.50;;;;;;10132187;28;93430;-68
2023/04/04 08:50:46;;;;;;;;;;;16.30;55.30;;;;;;10129328;28;96897;-67
2023/04/04 08:55:48;;;;;;;;;;;16.30;55.10;;;;;;10114819;28;93985;-67
2023/04/04 09:00:53;;;;;;;;;;;16.30;55.10;;;;;;10131430;28;92677;-68
2023/04/04 09:05:55;;;;;;;;;;;16.40;55.30;;;;;;10131636;28;92523;-68
2023/04/04 09:11:01;;;;;;;;;;;16.40;55.20;;;;;;10113828;28;93663;-67
2023/04/04 09:16:02;;;;;;;;;;;16.40;55.20;;;;;;10131964;28;94460;-68
2023/04/04 09:21:11;;;;;;;;;;;16.40;55.30;;;;;;10130918;28;94582;-67
2023/04/04 09:26:13;;;;;;;;;;;16.40;55.30;;;;;;10133222;28;93724;-68
2023/04/04 09:31:16;;;;;;;;;;;16.50;55.20;;;;;;10131956;28;92954;-67
2023/04/04 09:36:18;;;;;;;;;;;16.50;55.30;;;;;;10130422;28;93599;-66
2023/04/04 09:41:20;;;;;;;;;;;16.50;55.00;;;;;;10129232;28;95743;-67
2023/04/04 09:46:22;;;;;;;;;;;16.60;55.10;;;;;;10130827;28;94257;-67
2023/04/04 09:51:32;;;;;;;;;;;16.70;55.00;;;;;;10129719;28;93741;-67
2023/04/04 09:56:34;;;;;;;;;;;16.70;54.90;;;;;;10113421;28;93129;-67
2023/04/04 10:01:36;;;;;;;;;;;16.80;54.70;;;;;;10130604;28;94201;-67
2023/04/04 10:06:38;;;;;;;;;;;16.90;55.70;;;;;;10112761;28;94439;-67
2023/04/04 10:11:40;;;;;;;;;;;16.90;54.40;;;;;;10128869;28;93462;-67
2023/04/04 10:16:44;;;;;;;;;;;17.00;54.10;;;;;;10129541;28;92846;-68
2023/04/04 10:21:46;;;;;;;;;;;17.10;54.20;;;;;;10113179;28;92620;-67
2023/04/04 10:26:48;;;;;;;;;;;17.10;54.20;;;;;;10129943;28;94047;-67
2023/04/04 10:31:54;;;;;;;;;;;17.10;54.00;;;;;;10127801;28;95906;-68
2023/04/04 10:37:02;;;;;;;;;;;17.20;54.00;;;;;;10112658;28;94427;-68
2023/04/04 10:42:04;;;;;;;;;;;17.10;53.70;;;;;;10129257;28;94605;-67
2023/04/04 10:47:09;;;;;;;;;;;17.20;53.70;;;;;;10111450;28;94457;-67
2023/04/04 10:52:13;;;;;;;;;;;17.20;53.70;;;;;;10125152;28;94397;-67
2023/04/04 10:57:15;;;;;;;;;;;17.10;53.70;;;;;;10128636;28;93503;-68
2023/04/04 11:02:17;;;;;;;;;;;17.10;53.80;;;;;;10128510;28;94435;-67
2023/04/04 11:07:19;;;;;;;;;;;17.10;53.80;;;;;;10128711;28;92507;-67
2023/04/04 11:12:25;;;;;;;;;;;17.10;54.00;;;;;;10128448;28;93491;-67
2023/04/04 11:17:40;;;;;;;;;;;17.10;54.00;;;;;;10128590;28;94333;-68
2023/04/04 11:22:42;;;;;;;;;;;17.10;54.00;;;;;;10124762;28;96068;-68
2023/04/04 11:27:45;;;;;;;;;;;17.10;54.20;;;;;;10132440;28;92628;-67
2023/04/04 11:32:47;;;;;;;;;;;17.00;54.10;;;;;;10117639;28;94934;-68
2023/04/04 11:38:11;;;;;;;;;;;17.00;54.10;;;;;;10133984;28;93758;-68
2023/04/04 11:43:14;;;;;;;;;;;17.00;54.20;;;;;;10135027;28;93417;-68
2023/04/04 11:48:18;;;;;;;;;;;17.00;54.20;;;;;;10134068;28;94536;-67
2023/04/04 11:53:20;;;;;;;;;;;17.00;54.20;;;;;;10134867;28;93504;-68
2023/04/04 11:58:22;;;;;;;;;;;17.00;54.20;;;;;;10135501;28;92848;-67
2023/04/04 12:03:27;;;;;;;;;;;16.90;54.20;;;;;;10132702;28;93796;-67
2023/04/04 12:08:30;;;;;;;;;;;16.90;54.40;;;;;;10132939;28;93495;-68
2023/04/04 12:13:32;;;;;;;;;;;16.90;54.40;;;;;;10131033;28;96277;-67
2023/04/04 12:18:34;;;;;;;;;;;16.90;54.30;;;;;;10132917;28;94643;-67
2023/04/04 12:23:36;;;;;;;;;;;16.90;54.30;;;;;;10133092;28;94437;-68
2023/04/04 12:28:38;;;;;;;;;;;16.90;54.20;;;;;;10132985;28;94529;-68
2023/04/04 12:33:40;;;;;;;;;;;16.90;54.20;;;;;;10132920;28;94570;-67
2023/04/04 12:38:58;;;;;;;;;;;16.90;54.20;;;;;;10131811;28;94389;-68
2023/04/04 12:44:01;;;;;;;;;;;16.90;54.80;;;;;;10132769;28;94318;-68
2023/04/04 12:49:04;;;;;;;;;;;16.80;54.40;;;;;;10115201;28;92345;-68
2023/04/04 12:54:06;;;;;;;;;;;16.80;54.40;;;;;;10131454;28;94093;-67
2023/04/04 12:59:09;;;;;;;;;;;16.80;54.70;;;;;;10133123;28;92692;-67
2023/04/04 13:04:16;;;;;;;;;;;16.80;54.80;;;;;;10130039;28;96991;-68
2023/04/04 13:09:20;;;;;;;;;;;16.80;54.90;;;;;;10132382;28;94454;-67
2023/04/04 13:14:22;;;;;;;;;;;16.80;55.10;;;;;;10131139;28;93577;-68
2023/04/04 13:19:24;;;;;;;;;;;16.80;55.20;;;;;;10132414;28;93555;-67
2023/04/04 13:24:27;;;;;;;;;;;16.80;55.30;;;;;;10131159;28;93929;-67
2023/04/04 13:29:29;;;;;;;;;;;16.80;55.30;;;;;;10113930;28;94516;-67
2023/04/04 13:34:31;;;;;;;;;;;16.80;55.40;;;;;;10131088;28;97341;-67
2023/04/04 13:39:33;;;;;;;;;;;16.90;55.40;;;;;;10131715;28;93542;-67
2023/04/04 13:44:35;;;;;;;;;;;16.90;55.50;;;;;;10131874;28;94637;-66
2023/04/04 13:49:37;;;;;;;;;;;16.90;55.40;;;;;;10129278;28;93506;-67
2023/04/04 13:54:38;;;;;;;;;;;16.90;55.50;;;;;;10126936;28;97535;-67
2023/04/04 13:59:40;;;;;;;;;;;16.90;55.50;;;;;;10129772;28;93499;-67
2023/04/04 14:04:42;;;;;;;;;;;16.90;55.50;;;;;;10130020;28;94531;-67
2023/04/04 14:09:44;;;;;;;;;;;16.90;55.60;;;;;;10129227;28;93486;-67
2023/04/04 14:14:46;;;;;;;;;;;16.90;55.70;;;;;;10113079;28;93557;-68
2023/04/04 14:19:48;;;;;;;;;;;16.90;55.70;;;;;;10129942;28;94548;-67
2023/04/04 14:24:50;;;;;;;;;;;16.90;55.80;;;;;;10129643;28;94326;-67
2023/04/04 14:29:52;;;;;;;;;;;16.90;56.00;;;;;;10130439;28;92719;-68
2023/04/04 14:34:54;;;;;;;;;;;16.90;56.90;;;;;;10128866;28;92608;-68
2023/04/04 14:39:56;;;;;;;;;;;16.90;56.00;;;;;;10129346;28;93333;-67
2023/04/04 14:45:01;;;;;;;;;;;16.90;56.10;;;;;;10126336;28;97033;-68
2023/04/04 14:50:03;;;;;;;;;;;16.90;56.10;;;;;;10111215;28;93767;-68
2023/04/04 14:55:05;;;;;;;;;;;16.90;56.00;;;;;;10128272;28;93632;-68
2023/04/04 15:00:10;;;;;;;;;;;16.90;56.00;;;;;;10127742;28;93485;-68
2023/04/04 15:05:15;;;;;;;;;;;16.90;56.00;;;;;;10127607;28;94604;-68
2023/04/04 15:10:17;;;;;;;;;;;16.90;56.00;;;;;;10129207;28;93843;-67
2023/04/04 15:15:19;;;;;;;;;;;17.00;56.10;;;;;;10129144;28;94326;-68
2023/04/04 15:20:24;;;;;;;;;;;16.90;56.10;;;;;;10129348;28;92695;-68
2023/04/04 15:25:25;;;;;;;;;;;16.90;56.10;;;;;;10127548;28;92598;-67
2023/04/04 15:30:28;;;;;;;;;;;16.90;56.10;;;;;;10127593;28;93432;-67
2023/04/04 15:35:29;;;;;;;;;;;16.90;56.20;;;;;;10124327;28;95947;-68
2023/04/04 15:40:31;;;;;;;;;;;16.90;56.10;;;;;;10111299;28;94128;-67
2023/04/04 15:45:33;;;;;;;;;;;16.90;56.20;;;;;;10127356;28;93606;-67
2023/04/04 15:50:35;;;;;;;;;;;17.00;56.40;;;;;;10126503;28;94475;-68
2023/04/04 15:55:37;;;;;;;;;;;17.00;56.50;;;;;;10127344;28;93457;-67
2023/04/04 16:00:39;;;;;;;;;;;17.10;56.50;;;;;;10127004;28;93712;-68
2023/04/04 16:05:41;;;;;;;;;;;17.10;56.50;;;;;;10127428;28;94538;-68
2023/04/04 16:10:43;;;;;;;;;;;17.20;56.60;;;;;;10128438;28;92030;-68
2023/04/04 16:15:45;;;;;;;;;;;17.20;56.50;;;;;;10116655;28;93704;-68
2023/04/04 16:20:47;;;;;;;;;;;17.20;56.50;;;;;;10133420;28;94362;-68
2023/04/04 16:25:49;;;;;;;;;;;17.30;56.40;;;;;;10130586;28;96823;-69
2023/04/04 16:30:51;;;;;;;;;;;17.20;56.30;;;;;;10133428;28;93690;-68
2023/04/04 16:35:53;;;;;;;;;;;17.20;56.30;;;;;;10131939;28;93167;-68
2023/04/04 16:40:58;;;;;;;;;;;17.20;56.30;;;;;;10132436;28;93412;-67
2023/04/04 16:46:00;;;;;;;;;;;17.10;56.30;;;;;;10132608;28;93572;-67
2023/04/04 16:51:01;;;;;;;;;;;17.10;56.20;;;;;;10132177;28;94194;-69
2023/04/04 16:56:03;;;;;;;;;;;17.10;56.20;;;;;;10133152;28;93410;-70
2023/04/04 17:01:05;;;;;;;;;;;17.10;58.10;;;;;;10131120;28;92666;-66
2023/04/04 17:06:07;;;;;;;;;;;17.20;60.30;;;;;;10131433;28;92611;-67
2023/04/04 17:11:09;;;;;;;;;;;17.40;60.80;;;;;;10132243;28;94109;-67
2023/04/04 17:16:11;;;;;;;;;;;17.60;59.50;;;;;;10129663;28;96662;-67
2023/04/04 17:21:12;;;;;;;;;;;17.60;58.60;;;;;;10131956;28;94525;-68
2023/04/04 17:26:15;;;;;;;;;;;17.60;57.90;;;;;;10130362;28;94025;-68
2023/04/04 17:31:17;;;;;;;;;;;17.60;57.40;;;;;;10131355;28;94095;-68
2023/04/04 17:36:19;;;;;;;;;;;17.50;57.10;;;;;;10130021;28;93548;-68
2023/04/04 17:41:21;;;;;;;;;;;17.50;56.80;;;;;;10130204;28;94458;-67
2023/04/04 17:46:24;;;;;;;;;;;17.50;56.50;;;;;;10113885;28;93810;-68
2023/04/04 17:51:26;;;;;;;;;;;17.40;56.20;;;;;;10131760;28;92383;-68
2023/04/04 17:56:28;;;;;;;;;;;17.40;56.00;;;;;;10129483;28;93517;-68
2023/04/04 18:01:30;;;;;;;;;;;17.40;55.90;;;;;;10110264;28;93340;-68
2023/04/04 18:06:32;;;;;;;;;;;17.30;55.70;;;;;;10109378;28;95872;-68
2023/04/04 18:11:35;;;;;;;;;;;17.30;55.70;;;;;;10129322;28;93058;-68
2023/04/04 18:16:37;;;;;;;;;;;17.30;55.70;;;;;;10130356;28;96123;-68
2023/04/04 18:21:42;;;;;;;;;;;17.30;55.70;;;;;;10129221;28;93547;-68
2023/04/04 18:26:44;;;;;;;;;;;17.20;55.60;;;;;;10128106;28;93884;-68
2023/04/04 18:31:46;;;;;;;;;;;17.30;55.70;;;;;;10128210;28;93489;-68
2023/04/04 18:36:48;;;;;;;;;;;17.30;55.60;;;;;;10128484;28;93777;-68
2023/04/04 18:41:50;;;;;;;;;;;17.30;55.50;;;;;;10129653;28;92779;-68
2023/04/04 18:46:52;;;;;;;;;;;17.20;55.40;;;;;;10128988;28;93310;-69
2023/04/04 18:51:53;;;;;;;;;;;17.30;55.50;;;;;;10127535;28;94421;-68
2023/04/04 18:56:56;;;;;;;;;;;17.30;55.60;;;;;;10124718;28;96079;-68
2023/04/04 19:01:59;;;;;;;;;;;17.30;55.50;;;;;;10126305;28;93097;-68
2023/04/04 19:07:03;;;;;;;;;;;17.30;55.30;;;;;;10129133;28;94521;-68
2023/04/04 19:12:05;;;;;;;;;;;17.30;55.30;;;;;;10127590;28;94578;-68
2023/04/04 19:17:07;;;;;;;;;;;17.30;55.30;;;;;;10127505;28;94863;-68
2023/04/04 19:22:09;;;;;;;;;;;17.30;55.30;;;;;;10127751;28;93358;-68
2023/04/04 19:27:11;;;;;;;;;;;17.30;55.30;;;;;;10127902;28;94604;-68
2023/04/04 19:32:15;;;;;;;;;;;17.40;55.30;;;;;;10127599;28;92723;-68
2023/04/04 19:37:17;;;;;;;;;;;17.40;55.10;;;;;;10110243;28;93396;-68
2023/04/04 19:42:25;;;;;;;;;;;17.40;55.10;;;;;;10127007;28;93608;-69
2023/04/04 19:47:26;;;;;;;;;;;17.40;55.10;;;;;;10127287;28;96035;-68
2023/04/04 19:52:28;;;;;;;;;;;17.40;55.10;;;;;;10133359;28;93977;-69
2023/04/04 19:57:30;;;;;;;;;;;17.30;55.10;;;;;;10134151;28;94480;-68
2023/04/04 20:02:32;;;;;;;;;;;17.30;55.30;;;;;;10117934;28;93870;-68
2023/04/04 20:07:34;;;;;;;;;;;17.30;55.40;;;;;;10116457;28;93486;-68
2023/04/04 20:12:36;;;;;;;;;;;17.30;55.50;;;;;;10134797;28;94497;-68
2023/04/04 20:17:38;;;;;;;;;;;17.20;55.60;;;;;;10115630;28;92571;-67
2023/04/04 20:22:40;;;;;;;;;;;17.20;55.60;;;;;;10133570;28;92713;-68
2023/04/04 20:27:42;;;;;;;;;;;17.20;55.90;;;;;;10132851;28;94158;-68
2023/04/04 20:32:43;;;;;;;;;;;17.20;56.00;;;;;;10132017;28;93304;-68
2023/04/04 20:37:45;;;;;;;;;;;17.20;56.10;;;;;;10131468;28;97776;-69
2023/04/04 20:42:48;;;;;;;;;;;17.10;56.10;;;;;;10133799;28;93857;-68
2023/04/04 20:47:50;;;;;;;;;;;17.10;56.20;;;;;;10133170;28;94606;-68
2023/04/04 20:52:57;;;;;;;;;;;17.10;56.40;;;;;;10115944;28;94196;-68
2023/04/04 20:58:14;;;;;;;;;;;17.10;56.40;;;;;;10131856;28;94056;-69
2023/04/04 21:03:25;;;;;;;;;;;17.10;56.40;;;;;;10130165;28;94958;-67
2023/04/04 21:08:35;;;;;;;;;;;17.00;56.30;;;;;;10115654;28;94450;-68
2023/04/04 21:13:38;;;;;;;;;;;17.00;56.00;;;;;;10132100;28;92452;-68
2023/04/04 21:18:40;;;;;;;;;;;17.00;55.60;;;;;;10131853;28;93578;-68
2023/04/04 21:23:46;;;;;;;;;;;17.00;55.60;;;;;;10131536;28;94595;-68
2023/04/04 21:28:48;;;;;;;;;;;16.90;55.70;;;;;;10128403;28;96174;-69
2023/04/04 21:33:54;;;;;;;;;;;16.90;55.70;;;;;;10130583;28;93399;-68
2023/04/04 21:39:00;;;;;;;;;;;16.90;55.50;;;;;;10113505;28;94419;-69
2023/04/04 21:44:03;;;;;;;;;;;16.90;55.60;;;;;;10131045;28;94480;-68
2023/04/04 21:49:06;;;;;;;;;;;16.80;55.60;;;;;;10130044;28;93458;-68
2023/04/04 21:54:07;;;;;;;;;;;16.80;55.60;;;;;;10113624;28;93560;-68
2023/04/04 21:59:09;;;;;;;;;;;16.80;55.70;;;;;;10129543;28;93966;-69
2023/04/04 22:04:11;;;;;;;;;;;16.80;55.80;;;;;;10130728;28;93859;-68
2023/04/04 22:09:14;;;;;;;;;;;16.80;55.70;;;;;;10130067;28;93755;-69
2023/04/04 22:14:16;;;;;;;;;;;16.70;55.60;;;;;;10128735;28;93596;-68
2023/04/04 22:19:22;;;;;;;;;;;16.70;55.60;;;;;;10127091;28;97231;-67
2023/04/04 22:24:24;;;;;;;;;;;16.70;55.60;;;;;;10129579;28;94648;-68
2023/04/04 22:29:26;;;;;;;;;;;16.70;55.60;;;;;;10128966;28;93508;-68
2023/04/04 22:34:28;;;;;;;;;;;16.70;55.50;;;;;;10129279;28;93309;-69
2023/04/04 22:39:30;;;;;;;;;;;16.70;55.40;;;;;;10129006;28;93834;-68
2023/04/04 22:44:32;;;;;;;;;;;16.70;55.50;;;;;;10129511;28;94147;-68
2023/04/04 22:49:36;;;;;;;;;;;16.60;55.50;;;;;;10129529;28;93311;-69
2023/04/04 22:54:38;;;;;;;;;;;16.60;55.40;;;;;;10129629;28;92098;-69
2023/04/04 22:59:40;;;;;;;;;;;16.60;55.30;;;;;;10128446;28;93609;-68
2023/04/04 23:04:42;;;;;;;;;;;16.60;55.30;;;;;;10112211;28;94792;-69
2023/04/04 23:09:43;;;;;;;;;;;16.60;55.30;;;;;;10125447;28;96156;-69
2023/04/04 23:14:46;;;;;;;;;;;16.60;55.30;;;;;;10128301;28;93666;-69
2023/04/04 23:19:48;;;;;;;;;;;16.60;55.30;;;;;;10128987;28;93921;-67
2023/04/04 23:24:50;;;;;;;;;;;16.60;55.30;;;;;;10135067;28;94413;-68
2023/04/04 23:29:55;;;;;;;;;;;16.50;55.20;;;;;;10135466;28;94897;-68
2023/04/04 23:34:57;;;;;;;;;;;16.50;55.20;;;;;;10135504;28;92564;-68
2023/04/04 23:39:59;;;;;;;;;;;16.50;55.20;;;;;;10118309;28;94676;-68
2023/04/04 23:45:01;;;;;;;;;;;16.50;55.30;;;;;;10136539;28;93091;-68
2023/04/04 23:50:02;;;;;;;;;;;16.50;55.20;;;;;;10134516;28;93536;-68
2023/04/04 23:55:05;;;;;;;;;;;16.50;55.20;;;;;;10117642;28;95038;-68
